Latest Coastal Weather Observations for Flinders Island Airport

IDT60701

Issued at 7:02 am EST Monday 4 May 2015 (issued every 10 minutes, with the page automatically refreshed every 10 minutes)

About coastal observations | Map of coastal stations | Coastal observations for TAS | Marine services | Other Formats
Station Details ID: 099005 Name: FLINDERS ISLAND AIRPORT Lat: -40.09 Lon: 148.00 Height: 9.0 m
Data from the previous 72 hours. | See also: Recent months at Flinders Island Airport
Date/Time
EST
Temp

°C
Wind Pressure Rain
since 9am
mm
Weather Cloud Vis
km
Sea
Height
m
Swell
Dir
 
Speed
knots
Gust
knots
hPa Trend Height
m
Period
s
Dir
04/07:00am 6.1 ENE 7 8 1015.5 - 0.2 - Partly cloudy 10 - - - -
04/06:30am 5.4 ENE 6 7 1015.6 - 0.2 - - 10 - - - -
04/06:00am 6.0 NE 7 8 1015.7 - 0.2 - - 10 - - - -
04/05:30am 5.8 ENE 6 6 1015.7 - 0.2 - - 10 - - - -
04/05:00am 6.8 NE 7 8 1015.5 - 0.2 - - 10 - - - -
04/04:30am 7.5 NE 6 7 1015.4 - 0.2 - Partly cloudy 10 - - - -
04/04:00am 7.2 ENE 7 8 1015.6 - 0.2 - - 10 - - - -
04/03:45am 7.8 ENE 7 8 1015.7 - 0.2 - Partly cloudy 10 - - - -
04/03:30am 8.8 ENE 7 8 1015.9 - 0.2 - Partly cloudy 10 - - - -
04/03:15am 8.9 ENE 7 8 1016.2 - 0.2 - Partly cloudy 10 - - - -
04/03:00am 8.9 ENE 6 7 1016.5 - 0.2 - Mostly cloudy 10 - - - -
04/02:30am 8.2 NE 6 7 1016.9 - 0.2 - - 10 - - - -
04/02:00am 8.9 NE 5 7 1017.1 - 0.2 - - 10 - - - -
04/01:30am 10.1 NE 5 6 1017.1 - 0.2 - Partly cloudy 10 - - - -
04/01:00am 11.9 NE 2 4 1017.3 - 0.2 - Partly cloudy 10 - - - -
04/12:30am 12.0 NE 5 6 1017.6 - 0.2 - Cloudy 10 - - - -
04/12:00am 12.1 NE 5 6 1017.9 - 0.2 - Cloudy 10 - - - -
 
Date/Time
EST
Temp

°C
Wind Pressure Rain
since 9am
mm
Weather Cloud Vis
km
Sea
Height
m
Swell
Dir
 
Speed
knots
Gust
knots
hPa Trend Height
m
Period
s
Dir
03/11:30pm 12.6 NNW 1 5 1018.0 - 0.2 - Partly cloudy 10 - - - -
03/11:00pm 12.3 NE 4 5 1018.2 - 0.2 - Partly cloudy 10 - - - -
03/10:53pm 12.3 ENE 4 5 1018.2 - 0.2 - Partly cloudy 10 - - - -
03/10:41pm 12.2 NE 4 4 1018.3 - 0.2 - Partly cloudy 10 - - - -
03/10:30pm 12.1 NE 4 4 1018.4 - 0.2 - Partly cloudy 10 - - - -
03/10:00pm 11.6 ENE 6 6 1018.5 - 0.2 - Cloudy 10 - - - -
03/09:30pm 10.8 NE 5 6 1018.5 - 0.2 - Partly cloudy 10 - - - -
03/09:00pm 10.7 NE 4 5 1018.4 - 0.0 - Cloudy 10 - - - -
03/08:30pm 11.6 W 5 8 1018.1 - 0.0 - Partly cloudy 10 - - - -
03/08:00pm 12.3 SW 7 8 1018.2 - 0.0 - Partly cloudy 10 - - - -
03/07:30pm 14.8 SW 8 9 1017.9 - 0.0 - - 10 - - - -
03/07:00pm 14.8 SW 9 11 1017.8 - 0.0 - - 10 - - - -
03/06:30pm 14.7 SW 8 10 1017.8 - 0.0 - - 10 - - - -
03/06:00pm 14.7 WSW 10 12 1017.8 - 0.0 - Partly cloudy 10 - - - -
03/05:30pm 14.8 WSW 10 11 1017.5 - 0.0 - Partly cloudy 10 - - - -
03/05:00pm 15.3 WSW 9 11 1017.4 - 0.0 - Partly cloudy 10 - - - -
03/04:30pm 15.6 WSW 10 13 1017.3 - 0.0 - Partly cloudy 10 - - - -
03/04:00pm 16.0 WSW 10 12 1017.2 - 0.0 - - 10 - - - -
03/03:30pm 16.5 WSW 11 14 1017.2 - 0.0 - - 10 - - - -
03/03:00pm 17.1 WSW 11 14 1017.0 - 0.0 - - 10 - - - -
03/02:30pm 17.0 WSW 12 14 1017.2 - 0.0 - - 10 - - - -
03/02:00pm 17.2 WSW 12 15 1017.1 - 0.0 - - 10 - - - -
03/01:30pm 17.1 WSW 12 15 1017.3 - 0.0 - - 10 - - - -
03/01:00pm 17.2 WSW 11 14 1017.3 - 0.0 - Partly cloudy 10 - - - -
03/12:30pm 17.5 WSW 12 15 1017.5 - 0.0 - - 10 - - - -
03/12:00pm 17.6 W 13 16 1017.9 - 0.0 - - 10 - - - -
03/11:30am 17.3 W 11 15 1018.0 - 0.0 - - 10 - - - -
03/11:00am 17.4 W 10 14 1018.3 - 0.0 - - 10 - - - -
03/10:30am 17.6 W 12 16 1018.4 - 0.0 - Partly cloudy 10 - - - -
03/10:00am 17.1 WNW 12 15 1018.4 - 0.0 - - 10 - - - -
03/09:30am 16.6 W 9 11 1018.5 - 0.0 - - 10 - - - -
03/09:00am 16.3 W 8 11 1018.6 - 3.0 - Mostly clear 10 - - - -
03/08:30am 15.7 WNW 8 11 1018.5 - 3.0 - - 10 - - - -
03/08:00am 15.1 WNW 8 10 1018.3 - 3.0 - Partly cloudy 10 - - - -
03/07:30am 12.4 NW 6 8 1017.7 - 3.0 - Partly cloudy 10 - - - -
03/07:00am 12.3 NW 6 6 1017.4 - 3.0 - - 10 - - - -
03/06:30am 11.9 NW 6 7 1017.2 - 3.0 - - 10 - - - -
03/06:00am 11.8 WNW 6 7 1016.8 - 3.0 - - 10 - - - -
03/05:30am 12.5 NW 7 8 1016.6 - 3.0 - - 10 - - - -
03/05:00am 11.9 WNW 6 6 1016.4 - 3.0 - - 10 - - - -
03/04:30am 12.8 NW 6 8 1016.3 - 3.0 - - 10 - - - -
03/04:00am 13.1 NW 7 8 1016.1 - 3.0 - - 10 - - - -
03/03:30am 13.0 NW 6 7 1015.8 - 3.0 - - 10 - - - -
03/03:00am 13.3 WNW 6 7 1015.7 - 3.0 - Mostly clear 10 - - - -
03/02:30am 13.5 WNW 6 7 1015.7 - 3.0 - Partly cloudy 10 - - - -
03/02:00am 14.2 W 6 7 1015.8 - 3.0 - Partly cloudy 10 - - - -
03/01:30am 14.3 NW 7 8 1015.8 - 3.0 - Partly cloudy 10 - - - -
03/01:00am 14.7 NW 6 7 1015.7 - 3.0 - Partly cloudy 10 - - - -
03/12:30am 14.7 NW 6 6 1015.5 - 3.0 - Partly cloudy 10 - - - -
03/12:00am 15.4 NW 7 8 1015.8 - 3.0 - Partly cloudy 10 - - - -
 
Date/Time
EST
Temp

°C
Wind Pressure Rain
since 9am
mm
Weather Cloud Vis
km
Sea
Height
m
Swell
Dir
 
Speed
knots
Gust
knots
hPa Trend Height
m
Period
s
Dir
02/11:30pm 15.6 NW 7 9 1015.9 - 3.0 - Partly cloudy 10 - - - -
02/11:00pm 16.0 WNW 7 9 1016.1 - 3.0 - Partly cloudy 10 - - - -
02/10:30pm 15.6 W 7 8 1016.1 - 3.0 - Partly cloudy 10 - - - -
02/10:00pm 14.8 N 5 7 1016.1 - 3.0 - Cloudy 10 - - - -
02/09:30pm 16.2 NNE 6 8 1015.8 - 3.0 - Partly cloudy 10 - - - -
02/09:00pm 14.5 ENE 4 6 1015.7 - 3.0 Recent precip. Mostly cloudy 10 - - - -
02/08:30pm 14.8 NE 3 6 1015.7 - 3.0 - Partly cloudy 10 - - - -
02/08:07pm 15.2 N 6 8 1016.0 - 3.0 - Partly cloudy 10 - - - -
02/08:00pm 15.3 NNW 5 7 1016.0 - 2.8 - Partly cloudy 8 - - - -
02/07:46pm 15.3 NNW 5 8 1016.5 - 2.0 - Partly cloudy 5 - - - -
02/07:30pm 15.6 WNW 9 15 1016.4 - 1.2 - Partly cloudy 9 - - - -
02/07:00pm 15.5 NE 7 7 1015.5 - 0.0 - Partly cloudy 10 - - - -
02/06:30pm 15.8 NW 2 5 1015.7 - 0.0 - Partly cloudy 10 - - - -
02/06:00pm 16.6 WSW 5 7 1015.6 - 0.0 - Cloudy 10 - - - -
02/05:30pm 17.5 NNE 5 7 1015.4 - 0.0 - Partly cloudy 10 - - - -
02/05:00pm 17.7 NNE 9 11 1015.3 - 0.0 - Cloudy 10 - - - -
02/04:30pm 17.8 N 11 18 1015.2 - 0.0 - Partly cloudy 10 - - - -
02/04:00pm 17.5 N 10 14 1015.1 - 0.0 - Cloudy 10 - - - -
02/03:30pm 17.8 N 8 16 1015.2 - 0.0 - Partly cloudy 10 - - - -
02/03:00pm 18.1 NE 6 13 1015.2 - 0.0 - Mostly cloudy 10 - - - -
02/02:30pm 18.5 NE 7 13 1015.4 - 0.0 - Partly cloudy 10 - - - -
02/02:00pm 18.1 NNE 9 14 1015.8 - 0.0 - Partly cloudy 10 - - - -
02/01:48pm 18.0 NNE 7 13 1016.2 - 0.0 - Partly cloudy 10 - - - -
02/01:33pm 17.7 NE 8 14 1016.2 - 0.0 - Partly cloudy 10 - - - -
02/01:30pm 17.8 NE 10 16 1016.2 - 0.0 - Partly cloudy 10 - - - -
02/01:29pm 17.8 NE 11 16 1016.1 - 0.0 - Partly cloudy 10 - - - -
02/01:00pm 18.0 NE 13 17 1016.3 - 0.0 - Partly cloudy 10 - - - -
02/12:56pm 17.9 NE 13 18 1016.4 - 0.0 - Partly cloudy 10 - - - -
02/12:30pm 18.0 NE 13 17 1016.7 - 0.0 - - 10 - - - -
02/12:00pm 18.3 NE 11 15 1017.3 - 0.0 - Cloudy 10 - - - -
02/11:30am 18.4 NE 12 16 1018.1 - 0.0 - - 10 - - - -
02/11:00am 18.3 NNE 14 18 1018.9 - 0.0 - - 10 - - - -
02/10:30am 18.7 NNE 16 21 1019.4 - 0.0 - - 10 - - - -
02/10:00am 18.0 NNE 14 19 1019.5 - 0.0 - - 10 - - - -
02/09:30am 18.1 NNE 14 20 1019.8 - 0.0 - - 10 - - - -
02/09:00am 17.0 NNE 15 19 1020.0 - 0.0 - Mostly clear 10 - - - -
02/08:30am 17.0 NE 15 19 1019.9 - 0.0 - - 10 - - - -
02/08:00am 16.6 NNE 16 20 1020.1 - 0.0 - - 10 - - - -
02/07:30am 16.5 NNE 14 17 1020.1 - 0.0 - - 10 - - - -
02/07:00am 16.5 NNE 16 20 1020.1 - 0.0 - - 10 - - - -
02/06:30am 16.5 NNE 16 20 1020.0 - 0.0 - - 10 - - - -
02/06:00am 16.5 NNE 16 20 1019.9 - 0.0 - Partly cloudy 10 - - - -
02/05:30am 16.5 NNE 16 21 1019.8 - 0.0 - - 10 - - - -
02/05:00am 16.3 NNE 16 21 1019.9 - 0.0 - - 10 - - - -
02/04:30am 16.3 NNE 15 19 1020.1 - 0.0 - - 10 - - - -
02/04:00am 16.4 NNE 18 22 1020.3 - 0.0 - - 10 - - - -
02/03:30am 16.3 NNE 17 22 1020.4 - 0.0 - - 10 - - - -
02/03:00am 16.5 NNE 17 21 1020.5 - 0.0 - - 10 - - - -
02/02:30am 16.6 NNE 15 21 1020.7 - 0.0 - - 10 - - - -
02/02:00am 16.6 NNE 16 22 1021.0 - 0.0 - - 10 - - - -
02/01:30am 16.6 NNE 17 21 1021.2 - 0.0 - - 10 - - - -
02/01:00am 16.6 NNE 18 23 1021.3 - 0.0 - - 10 - - - -
02/12:30am 16.5 NNE 15 20 1021.7 - 0.0 - - 10 - - - -
02/12:00am 16.7 NNE 18 23 1021.9 - 0.0 - - 10 - - - -
 
Date/Time
EST
Temp

°C
Wind Pressure Rain
since 9am
mm
Weather Cloud Vis
km
Sea
Height
m
Swell
Dir
 
Speed
knots
Gust
knots
hPa Trend Height
m
Period
s
Dir
01/11:30pm 16.6 NNE 19 25 1021.9 - 0.0 - - 10 - - - -
01/11:00pm 16.7 NNE 15 20 1022.6 - 0.0 - - 10 - - - -
01/10:30pm 16.5 NNE 14 18 1023.3 - 0.0 - - 10 - - - -
01/10:00pm 16.1 NE 11 17 1024.0 - 0.0 - - 10 - - - -
01/09:50pm 16.1 ENE 9 21 1024.2 - 0.0 - - 10 - - - -
01/09:30pm 15.6 ENE 5 8 1024.5 - 0.0 - Partly cloudy 10 - - - -
01/09:00pm 15.5 E 8 15 1024.7 - 0.0 - Mostly clear 10 - - - -
01/08:30pm 15.3 ENE 5 7 1025.2 - 0.0 - Partly cloudy 10 - - - -
01/08:00pm 15.5 ENE 5 8 1025.2 - 0.0 - Partly cloudy 10 - - - -
01/07:30pm 15.1 NE 7 12 1025.0 - 0.0 - - 10 - - - -
01/07:00pm 15.1 ENE 6 9 1025.1 - 0.0 - Partly cloudy 10 - - - -
01/06:30pm 16.2 NNE 8 14 1025.7 - 0.0 - Partly cloudy 10 - - - -
01/06:00pm 16.5 NNE 13 20 1025.3 - 0.0 - - 10 - - - -
01/05:30pm 16.7 NNE 15 22 1025.3 - 0.0 - - 10 - - - -
01/05:00pm 17.0 NNE 17 21 1025.1 - 0.0 - - 10 - - - -
01/04:30pm 17.5 NNE 17 23 1025.3 - 0.0 - - 10 - - - -
01/04:00pm 17.9 NNE 17 21 1025.5 - 0.0 - - 10 - - - -
01/03:30pm 18.3 NNE 17 21 1025.6 - 0.0 - - 10 - - - -
01/03:00pm 18.7 NNE 16 22 1025.8 - 0.0 - - 10 - - - -
01/02:30pm 19.1 NNE 15 20 1025.7 - 0.0 - - 10 - - - -
01/02:00pm 19.5 NNE 15 19 1025.7 - 0.0 - - 10 - - - -
01/01:30pm 19.2 NNE 17 21 1026.1 - 0.0 - - 10 - - - -
01/01:00pm 19.3 NNE 16 25 1026.2 - 0.0 - - 10 - - - -
01/12:30pm 19.4 NNE 17 22 1026.5 - 0.0 - - 10 - - - -
01/12:00pm 19.3 NNE 17 21 1026.9 - 0.0 - - 10 - - - -
01/11:30am 19.2 NNE 16 21 1027.4 - 0.0 - - 10 - - - -
01/11:00am 18.8 NNE 16 20 1028.0 - 0.0 - - 10 - - - -
01/10:30am 18.7 NE 15 21 1028.5 - 0.0 - - 10 - - - -
01/10:00am 18.1 NE 14 19 1028.8 - 0.0 - - 10 - - - -
01/09:30am 17.4 NE 14 17 1029.1 - 0.0 - - 10 - - - -
01/09:00am 16.8 NNE 11 15 1029.3 - 0.2 - - 10 - - - -
01/08:30am 14.2 SE 5 6 1029.6 - 0.2 - - 10 - - - -
01/08:00am 10.9 SE 4 5 1029.6 - 0.2 - - 10 - - - -
01/07:30am 7.7 SSE 4 5 1029.6 - 0.2 - - 10 - - - -

Other Formats:

Comma delimited format used in spreadsheet applications
http://www.bom.gov.au/fwo/IDT60701/IDT60701.94980.axf

JavaScript Object Notation format (JSON) in row-major order
http://www.bom.gov.au/fwo/IDT60701/IDT60701.94980.json